• Join FlightAware (Why Join?)
  • Login
  • US Flag 
10:44AM EDT


 

Airport Tracker/Info


-or-


 

Live Flight TrackerFlight Track Log ✈ EJA831 ✈ 07-May-2014 ✈ KPHL - KPGV

Flight Track Log - Related Links

Times and Time Zones

All times are in EDT time to prevent confusion due to time zone crossing. See the EJA831 flight status page for this flight to view local times or setup timezone preferences in your user account.

Time Position Orientation Groundspeed Altitude Reporting Facility
EDT Latitude Longitude Course Direction KTS MPH feet Rate Location/Type
04:18PM 39.8667 -75.2667 218° Southwest 188 216 1,200  Level Philadelphia TRACON
04:19PM 39.8000 -75.3333 218° Southwest 262 302 4,300 2,880 Climbing Philadelphia TRACON
04:20PM 39.7333 -75.3500 191° South 274 315 7,600 3,060 Climbing Philadelphia TRACON
04:21PM 39.6500 -75.3667 189° South 274 315 10,500 1,860 Climbing Philadelphia TRACON
04:22PM 39.5467 -75.3681 181° South 308 354 12,000 900 Climbing Washington Center
04:23PM 39.4569 -75.3711 182° South 313 360 12,600 1,140 Climbing Washington Center
04:24PM 39.3675 -75.3742 182° South 319 367 14,300 1,620 Climbing Washington Center
04:25PM 39.2736 -75.3797 183° South 330 380 15,900 1,620 Climbing Washington Center
04:26PM 39.1758 -75.3856 183° South 342 394 17,700 1,620 Climbing Washington Center
04:27PM 39.0778 -75.4017 187° South 355 409 19,200 1,560 Climbing Washington Center
04:28PM 38.9736 -75.4208 188° South 369 425 20,900 1,680 Climbing Washington Center
04:29PM 38.8672 -75.4317 185° South 375 432 22,600 1,680 Climbing Washington Center
04:30PM 38.7611 -75.4478 187° South 380 437 24,300 1,620 Climbing Washington Center
04:31PM 38.6525 -75.4642 187° South 391 450 25,900 840 Climbing Washington Center
04:32PM 38.5400 -75.4828 187° South 397 457 26,000  Climbing Washington Center
04:33PM 38.4233 -75.5017 187° South 413 475 26,000  Level Washington Center
04:34PM 38.3108 -75.5414 195° South 426 490 26,000  Level Washington Center
04:35PM 38.2231 -75.6181 214° Southwest 426 490 26,000  Level Washington Center
04:36PM 38.1333 -75.7053 217° Southwest 414 476 26,000  Level Washington Center
04:37PM 38.0375 -75.8081 220° Southwest 414 476 26,000  Level Washington Center
04:38PM 37.9475 -75.8842 214° Southwest 420 483 26,000  Level Washington Center
04:40PM 37.7656 -76.0567 215° Southwest 415 478 26,000  Level Washington Center
04:41PM 37.6778 -76.1403 217° Southwest 415 478 26,000  Level Washington Center
04:42PM 37.5750 -76.2286 214° Southwest 415 478 26,000  Level Washington Center
04:43PM 37.4786 -76.3167 216° Southwest 421 484 26,000  Level Washington Center
04:44PM 37.3864 -76.3994 216° Southwest 426 490 26,000  Level Washington Center
04:45PM 37.3044 -76.4769 217° Southwest 426 490 26,000  Level Washington Center
04:46PM 37.2097 -76.5619 216° Southwest 421 484 26,000  Level Washington Center
04:47PM 37.1131 -76.6519 217° Southwest 426 490 26,000  Level Washington Center
04:48PM 37.0042 -76.7181 206° Southwest 437 503 26,000  Level Washington Center
04:49PM 36.8908 -76.7761 202° Southwest 437 503 26,000 -300 Level Washington Center
04:50PM 36.7778 -76.8314 201° Southwest 437 503 25,400 -1,020 Descending Washington Center
04:51PM 36.6728 -76.8817 201° Southwest 432 497 24,000 -720 Descending Washington Center
04:52PM 36.5658 -76.9342 202° Southwest 421 484 24,000  Level Washington Center
04:53PM 36.4589 -76.9892 202° Southwest 415 478 24,000 -540 Level Washington Center
04:54PM 36.3517 -77.0414 201° Southwest 415 478 23,000 -540 Descending Washington Center
04:55PM 36.2672 -77.1197 217° Southwest 398 458 23,000 -960 Level Washington Center
04:56PM 36.1825 -77.2211 224° Southwest 395 455 21,100 -1,800 Descending Washington Center
04:57PM 36.1111 -77.2658 207° Southwest 380 437 19,500 -1,620 Descending Washington Center
04:58PM 36.0064 -77.2944 192° South 360 414 18,000 -840 Descending Washington Center
04:59PM 35.9078 -77.3178 191° South 352 405 17,900 -1,320 Descending Washington Center
05:00PM 35.8178 -77.3417 192° South 352 405 15,400 -2,880 Descending Washington Center
05:01PM 35.7339 -77.3628 192° South 329 379 12,200 -3,180 Descending Washington Center
05:02PM 35.6669 -77.3792 191° South 287 330 9,100 -3,120 Descending Washington Center
05:03PM 35.6061 -77.3983 194° South 252 290 6,000 7,380 Descending Washington Center
05:04PM 35.5969 -77.4542 259° West 190 219 24,000 -480 Climbing Washington Center
05:05PM 35.6550 -77.4889 334° Northwest 124 143 5,100 -9,720 Descending Washington Center
05:06PM 35.7086 -77.5156 338° Northwest 161 185 5,000 -600 Descending Washington Center
05:07PM 35.7714 -77.5044 North 189 217 4,000 -540 Descending Washington Center
05:08PM 35.7875 -77.5483 294° West 146 168 4,000  Level Washington Center